sensor_id;sensor_type;location;lat;lon;timestamp;temperature;humidity
8736;DHT22;4404;49.308;12.178;2023-07-02T07:05:02;17.70;99.90
8736;DHT22;4404;49.308;12.178;2023-07-02T07:07:08;17.60;99.90
8736;DHT22;4404;49.308;12.178;2023-07-02T07:09:26;17.60;99.90
8736;DHT22;4404;49.308;12.178;2023-07-02T07:11:31;17.70;99.90
8736;DHT22;4404;49.308;12.178;2023-07-02T07:13:33;17.60;99.90
8736;DHT22;4404;49.308;12.178;2023-07-02T07:15:39;17.60;99.90
8736;DHT22;4404;49.308;12.178;2023-07-02T07:17:41;17.70;99.90
8736;DHT22;4404;49.308;12.178;2023-07-02T07:19:43;17.70;99.90
8736;DHT22;4404;49.308;12.178;2023-07-02T07:21:47;17.70;99.90
8736;DHT22;4404;49.308;12.178;2023-07-02T07:23:49;17.80;99.90
8736;DHT22;4404;49.308;12.178;2023-07-02T07:25:54;18.00;99.90
8736;DHT22;4404;49.308;12.178;2023-07-02T07:27:57;18.00;99.90
8736;DHT22;4404;49.308;12.178;2023-07-02T07:30:01;18.00;99.90
8736;DHT22;4404;49.308;12.178;2023-07-02T07:32:04;18.20;99.90
8736;DHT22;4404;49.308;12.178;2023-07-02T07:34:07;18.30;99.90
8736;DHT22;4404;49.308;12.178;2023-07-02T07:36:09;18.30;99.90
8736;DHT22;4404;49.308;12.178;2023-07-02T07:38:45;18.30;99.90
8736;DHT22;4404;49.308;12.178;2023-07-02T07:40:47;18.20;99.90
8736;DHT22;4404;49.308;12.178;2023-07-02T07:42:52;18.20;99.90
8736;DHT22;4404;49.308;12.178;2023-07-02T07:44:55;18.10;99.90
8736;DHT22;4404;49.308;12.178;2023-07-02T07:50:27;17.40;99.90
8736;DHT22;4404;49.308;12.178;2023-07-02T07:52:29;18.10;99.90
8736;DHT22;4404;49.308;12.178;2023-07-02T07:54:33;18.10;99.90
8736;DHT22;4404;49.308;12.178;2023-07-02T07:56:35;18.00;99.90
8736;DHT22;4404;49.308;12.178;2023-07-02T07:58:37;18.00;99.90
8736;DHT22;4404;49.308;12.178;2023-07-02T08:00:39;18.10;99.90
8736;DHT22;4404;49.308;12.178;2023-07-02T08:02:44;18.10;99.90
8736;DHT22;4404;49.308;12.178;2023-07-02T08:04:47;18.10;99.90
8736;DHT22;4404;49.308;12.178;2023-07-02T08:06:49;18.10;99.90
8736;DHT22;4404;49.308;12.178;2023-07-02T08:09:54;18.10;99.90
8736;DHT22;4404;49.308;12.178;2023-07-02T08:11:52;18.20;99.90
8736;DHT22;4404;49.308;12.178;2023-07-02T08:13:54;18.40;99.90
8736;DHT22;4404;49.308;12.178;2023-07-02T08:15:59;18.30;99.90
8736;DHT22;4404;49.308;12.178;2023-07-02T08:18:01;18.30;99.90
8736;DHT22;4404;49.308;12.178;2023-07-02T08:20:04;18.30;99.90
8736;DHT22;4404;49.308;12.178;2023-07-02T08:22:10;18.30;99.90
8736;DHT22;4404;49.308;12.178;2023-07-02T08:24:24;18.30;99.90
8736;DHT22;4404;49.308;12.178;2023-07-02T08:26:28;18.30;99.90
8736;DHT22;4404;49.308;12.178;2023-07-02T08:28:32;18.40;99.90
8736;DHT22;4404;49.308;12.178;2023-07-02T08:30:34;18.50;99.90
8736;DHT22;4404;49.308;12.178;2023-07-02T08:32:36;18.70;99.90
8736;DHT22;4404;49.308;12.178;2023-07-02T08:34:38;18.80;99.90
8736;DHT22;4404;49.308;12.178;2023-07-02T08:36:54;19.00;99.90
8736;DHT22;4404;49.308;12.178;2023-07-02T08:38:56;19.40;99.90
8736;DHT22;4404;49.308;12.178;2023-07-02T08:40:59;19.60;99.90
8736;DHT22;4404;49.308;12.178;2023-07-02T08:43:09;19.80;99.90
8736;DHT22;4404;49.308;12.178;2023-07-02T08:45:23;19.60;99.90
8736;DHT22;4404;49.308;12.178;2023-07-02T08:49:48;19.60;99.90
8736;DHT22;4404;49.308;12.178;2023-07-02T08:54:00;19.70;99.90
8736;DHT22;4404;49.308;12.178;2023-07-02T09:00:27;20.40;99.90
8736;DHT22;4404;49.308;12.178;2023-07-02T09:02:34;18.00;99.90
8736;DHT22;4404;49.308;12.178;2023-07-02T09:10:45;20.10;99.90
8736;DHT22;4404;49.308;12.178;2023-07-02T09:12:47;20.50;99.90
8736;DHT22;4404;49.308;12.178;2023-07-02T09:14:54;20.60;99.90
8736;DHT22;4404;49.308;12.178;2023-07-02T09:21:14;20.60;99.90
8736;DHT22;4404;49.308;12.178;2023-07-02T09:23:16;20.40;99.90
8736;DHT22;4404;49.308;12.178;2023-07-02T09:27:21;20.70;99.90
8736;DHT22;4404;49.308;12.178;2023-07-02T09:29:24;20.60;99.90
8736;DHT22;4404;49.308;12.178;2023-07-02T09:31:28;20.80;99.90
8736;DHT22;4404;49.308;12.178;2023-07-02T09:35:34;20.80;99.90
8736;DHT22;4404;49.308;12.178;2023-07-02T09:37:42;21.00;99.90
8736;DHT22;4404;49.308;12.178;2023-07-02T09:43:58;20.40;99.90
8736;DHT22;4404;49.308;12.178;2023-07-02T09:46:00;21.30;99.90
8736;DHT22;4404;49.308;12.178;2023-07-02T09:48:04;21.40;98.30
8736;DHT22;4404;49.308;12.178;2023-07-02T09:52:13;21.30;99.90
8736;DHT22;4404;49.308;12.178;2023-07-02T09:56:21;21.50;95.80
8736;DHT22;4404;49.308;12.178;2023-07-02T10:00:26;21.60;96.90
8736;DHT22;4404;49.308;12.178;2023-07-02T10:02:29;21.60;95.10
8736;DHT22;4404;49.308;12.178;2023-07-02T10:04:40;21.70;95.40
8736;DHT22;4404;49.308;12.178;2023-07-02T10:06:47;21.70;95.30
8736;DHT22;4404;49.308;12.178;2023-07-02T10:08:54;21.80;94.80
8736;DHT22;4404;49.308;12.178;2023-07-02T10:11:10;21.70;93.70
8736;DHT22;4404;49.308;12.178;2023-07-02T10:13:13;21.90;94.00
8736;DHT22;4404;49.308;12.178;2023-07-02T10:15:24;22.00;93.60
8736;DHT22;4404;49.308;12.178;2023-07-02T10:17:28;21.70;93.80
8736;DHT22;4404;49.308;12.178;2023-07-02T10:19:31;21.70;94.00
8736;DHT22;4404;49.308;12.178;2023-07-02T10:23:37;21.00;93.70
8736;DHT22;4404;49.308;12.178;2023-07-02T10:25:39;21.30;94.20
8736;DHT22;4404;49.308;12.178;2023-07-02T10:29:51;21.30;93.30
8736;DHT22;4404;49.308;12.178;2023-07-02T10:31:56;21.10;93.90
8736;DHT22;4404;49.308;12.178;2023-07-02T10:34:21;21.20;95.10
8736;DHT22;4404;49.308;12.178;2023-07-02T10:42:55;21.70;91.70
8736;DHT22;4404;49.308;12.178;2023-07-02T10:44:57;21.50;92.10
8736;DHT22;4404;49.308;12.178;2023-07-02T10:47:00;21.50;91.60
8736;DHT22;4404;49.308;12.178;2023-07-02T10:49:02;21.50;92.70
8736;DHT22;4404;49.308;12.178;2023-07-02T10:53:19;21.90;92.20
8736;DHT22;4404;49.308;12.178;2023-07-02T10:55:36;21.90;92.30
8736;DHT22;4404;49.308;12.178;2023-07-02T10:58:07;22.40;91.90
8736;DHT22;4404;49.308;12.178;2023-07-02T11:00:14;22.80;90.70
8736;DHT22;4404;49.308;12.178;2023-07-02T11:02:19;22.70;88.80
8736;DHT22;4404;49.308;12.178;2023-07-02T11:04:22;22.40;91.00
8736;DHT22;4404;49.308;12.178;2023-07-02T11:06:27;22.30;90.50
8736;DHT22;4404;49.308;12.178;2023-07-02T11:08:34;22.30;89.20
8736;DHT22;4404;49.308;12.178;2023-07-02T11:10:38;22.30;88.90
8736;DHT22;4404;49.308;12.178;2023-07-02T11:12:48;22.20;88.00
8736;DHT22;4404;49.308;12.178;2023-07-02T11:14:53;22.30;90.80
8736;DHT22;4404;49.308;12.178;2023-07-02T11:17:04;22.50;90.50
8736;DHT22;4404;49.308;12.178;2023-07-02T11:19:09;22.50;90.20
8736;DHT22;4404;49.308;12.178;2023-07-02T11:21:11;22.20;90.10
8736;DHT22;4404;49.308;12.178;2023-07-02T11:23:18;22.60;92.90
8736;DHT22;4404;49.308;12.178;2023-07-02T11:25:34;22.80;88.60
8736;DHT22;4404;49.308;12.178;2023-07-02T11:27:42;23.20;90.50
8736;DHT22;4404;49.308;12.178;2023-07-02T11:29:44;23.50;87.60
8736;DHT22;4404;49.308;12.178;2023-07-02T11:32:11;22.70;86.20
8736;DHT22;4404;49.308;12.178;2023-07-02T11:34:23;22.10;87.80
8736;DHT22;4404;49.308;12.178;2023-07-02T11:36:25;22.10;88.40
8736;DHT22;4404;49.308;12.178;2023-07-02T11:38:30;21.90;88.50
8736;DHT22;4404;49.308;12.178;2023-07-02T11:40:34;21.90;89.40
8736;DHT22;4404;49.308;12.178;2023-07-02T11:42:54;21.90;90.50
8736;DHT22;4404;49.308;12.178;2023-07-02T11:45:06;21.90;88.10
8736;DHT22;4404;49.308;12.178;2023-07-02T11:47:33;22.80;86.20
8736;DHT22;4404;49.308;12.178;2023-07-02T11:49:35;22.50;87.00
8736;DHT22;4404;49.308;12.178;2023-07-02T11:51:41;23.30;84.30
8736;DHT22;4404;49.308;12.178;2023-07-02T11:53:48;23.60;87.10
8736;DHT22;4404;49.308;12.178;2023-07-02T11:55:52;24.10;83.20
8736;DHT22;4404;49.308;12.178;2023-07-02T11:58:00;23.90;84.40
8736;DHT22;4404;49.308;12.178;2023-07-02T12:00:08;24.20;82.50
8736;DHT22;4404;49.308;12.178;2023-07-02T12:02:10;24.50;83.80
8736;DHT22;4404;49.308;12.178;2023-07-02T12:04:12;24.30;78.80
8736;DHT22;4404;49.308;12.178;2023-07-02T12:06:14;24.20;79.50
8736;DHT22;4404;49.308;12.178;2023-07-02T12:08:17;23.60;79.90
8736;DHT22;4404;49.308;12.178;2023-07-02T12:10:23;23.20;81.90
8736;DHT22;4404;49.308;12.178;2023-07-02T12:12:25;23.40;83.30
8736;DHT22;4404;49.308;12.178;2023-07-02T12:14:28;23.30;79.70
8736;DHT22;4404;49.308;12.178;2023-07-02T12:16:30;23.20;80.90
8736;DHT22;4404;49.308;12.178;2023-07-02T12:18:35;23.10;78.30
8736;DHT22;4404;49.308;12.178;2023-07-02T12:20:43;23.00;79.80
8736;DHT22;4404;49.308;12.178;2023-07-02T12:22:48;23.40;80.10
8736;DHT22;4404;49.308;12.178;2023-07-02T12:24:50;23.50;77.60
8736;DHT22;4404;49.308;12.178;2023-07-02T12:26:56;23.20;77.00
8736;DHT22;4404;49.308;12.178;2023-07-02T12:28:58;23.30;77.80
8736;DHT22;4404;49.308;12.178;2023-07-02T12:31:01;23.50;78.60
8736;DHT22;4404;49.308;12.178;2023-07-02T12:33:03;23.70;78.10
8736;DHT22;4404;49.308;12.178;2023-07-02T12:35:06;24.10;74.80
8736;DHT22;4404;49.308;12.178;2023-07-02T12:37:10;24.30;73.40
8736;DHT22;4404;49.308;12.178;2023-07-02T12:39:17;24.60;74.70
8736;DHT22;4404;49.308;12.178;2023-07-02T12:41:19;24.90;73.40
8736;DHT22;4404;49.308;12.178;2023-07-02T12:43:22;25.20;73.90
8736;DHT22;4404;49.308;12.178;2023-07-02T12:45:24;25.60;70.40
8736;DHT22;4404;49.308;12.178;2023-07-02T12:47:27;26.00;69.00
8736;DHT22;4404;49.308;12.178;2023-07-02T12:49:29;26.00;70.00
8736;DHT22;4404;49.308;12.178;2023-07-02T12:51:31;26.40;68.80
8736;DHT22;4404;49.308;12.178;2023-07-02T12:53:33;26.40;67.00
8736;DHT22;4404;49.308;12.178;2023-07-02T12:55:35;26.40;66.70
8736;DHT22;4404;49.308;12.178;2023-07-02T12:57:37;26.10;65.40
8736;DHT22;4404;49.308;12.178;2023-07-02T12:59:39;26.00;65.90
8736;DHT22;4404;49.308;12.178;2023-07-02T13:01:43;26.20;64.60
8736;DHT22;4404;49.308;12.178;2023-07-02T13:03:47;26.60;64.00
8736;DHT22;4404;49.308;12.178;2023-07-02T13:05:49;26.40;63.10
8736;DHT22;4404;49.308;12.178;2023-07-02T13:07:51;26.20;60.20
8736;DHT22;4404;49.308;12.178;2023-07-02T13:09:53;26.00;61.10
8736;DHT22;4404;49.308;12.178;2023-07-02T13:11:57;26.40;63.60
8736;DHT22;4404;49.308;12.178;2023-07-02T13:13:59;27.10;61.00
8736;DHT22;4404;49.308;12.178;2023-07-02T13:16:02;27.50;59.40
8736;DHT22;4404;49.308;12.178;2023-07-02T13:18:05;27.30;57.60
8736;DHT22;4404;49.308;12.178;2023-07-02T13:20:11;27.50;57.50
8736;DHT22;4404;49.308;12.178;2023-07-02T13:22:14;27.10;58.40
8736;DHT22;4404;49.308;12.178;2023-07-02T13:24:16;27.60;59.80
8736;DHT22;4404;49.308;12.178;2023-07-02T13:26:18;27.10;57.20
8736;DHT22;4404;49.308;12.178;2023-07-02T13:28:21;26.20;59.30
8736;DHT22;4404;49.308;12.178;2023-07-02T13:30:25;26.20;57.10
8736;DHT22;4404;49.308;12.178;2023-07-02T13:32:28;26.40;56.60
8736;DHT22;4404;49.308;12.178;2023-07-02T13:34:31;25.80;57.50
8736;DHT22;4404;49.308;12.178;2023-07-02T13:36:34;26.10;58.30
8736;DHT22;4404;49.308;12.178;2023-07-02T13:38:36;25.90;58.10
8736;DHT22;4404;49.308;12.178;2023-07-02T13:40:38;26.50;59.60
8736;DHT22;4404;49.308;12.178;2023-07-02T13:42:40;27.20;58.40
8736;DHT22;4404;49.308;12.178;2023-07-02T13:44:43;27.40;58.20
8736;DHT22;4404;49.308;12.178;2023-07-02T13:46:45;27.90;56.40
8736;DHT22;4404;49.308;12.178;2023-07-02T13:48:48;28.00;55.80
8736;DHT22;4404;49.308;12.178;2023-07-02T13:50:50;28.10;55.80
8736;DHT22;4404;49.308;12.178;2023-07-02T13:52:54;27.20;57.30
8736;DHT22;4404;49.308;12.178;2023-07-02T13:54:56;25.80;56.70
8736;DHT22;4404;49.308;12.178;2023-07-02T13:56:59;25.90;61.40
8736;DHT22;4404;49.308;12.178;2023-07-02T13:59:04;26.50;58.60
8736;DHT22;4404;49.308;12.178;2023-07-02T14:01:06;26.60;58.00
8736;DHT22;4404;49.308;12.178;2023-07-02T14:03:08;26.50;57.70
8736;DHT22;4404;49.308;12.178;2023-07-02T14:05:10;26.50;56.50
8736;DHT22;4404;49.308;12.178;2023-07-02T14:07:13;25.90;57.30
8736;DHT22;4404;49.308;12.178;2023-07-02T14:09:15;25.70;57.90
8736;DHT22;4404;49.308;12.178;2023-07-02T14:11:17;26.20;58.60
8736;DHT22;4404;49.308;12.178;2023-07-02T14:13:20;26.10;56.90
8736;DHT22;4404;49.308;12.178;2023-07-02T14:15:24;25.90;57.90
8736;DHT22;4404;49.308;12.178;2023-07-02T14:17:28;25.90;57.60
8736;DHT22;4404;49.308;12.178;2023-07-02T14:19:30;25.70;58.10
8736;DHT22;4404;49.308;12.178;2023-07-02T14:21:32;25.10;60.40
8736;DHT22;4404;49.308;12.178;2023-07-02T14:23:34;24.90;60.00
8736;DHT22;4404;49.308;12.178;2023-07-02T14:25:36;24.90;60.60
8736;DHT22;4404;49.308;12.178;2023-07-02T14:29:41;25.50;58.70
8736;DHT22;4404;49.308;12.178;2023-07-02T14:31:45;25.80;59.80
8736;DHT22;4404;49.308;12.178;2023-07-02T14:33:49;25.60;59.40
8736;DHT22;4404;49.308;12.178;2023-07-02T14:35:52;25.30;58.90
8736;DHT22;4404;49.308;12.178;2023-07-02T14:37:54;24.90;59.90
8736;DHT22;4404;49.308;12.178;2023-07-02T14:39:57;26.20;59.60
8736;DHT22;4404;49.308;12.178;2023-07-02T14:42:01;25.60;59.50
8736;DHT22;4404;49.308;12.178;2023-07-02T14:44:04;25.80;56.90
8736;DHT22;4404;49.308;12.178;2023-07-02T14:46:06;25.70;57.70
8736;DHT22;4404;49.308;12.178;2023-07-02T14:48:11;25.80;58.80
8736;DHT22;4404;49.308;12.178;2023-07-02T14:50:13;25.80;57.40
8736;DHT22;4404;49.308;12.178;2023-07-02T14:52:17;25.90;57.40
8736;DHT22;4404;49.308;12.178;2023-07-02T14:54:19;26.30;59.00
8736;DHT22;4404;49.308;12.178;2023-07-02T14:56:22;26.30;57.20
8736;DHT22;4404;49.308;12.178;2023-07-02T14:58:25;26.30;55.90
8736;DHT22;4404;49.308;12.178;2023-07-02T15:00:28;25.90;56.30
8736;DHT22;4404;49.308;12.178;2023-07-02T15:02:30;25.90;56.10
8736;DHT22;4404;49.308;12.178;2023-07-02T15:04:33;25.60;56.20
8736;DHT22;4404;49.308;12.178;2023-07-02T15:08:41;25.10;57.00
8736;DHT22;4404;49.308;12.178;2023-07-02T15:10:46;25.10;57.50
8736;DHT22;4404;49.308;12.178;2023-07-02T15:12:50;25.10;57.20
8736;DHT22;4404;49.308;12.178;2023-07-02T15:14:52;25.40;57.40
8736;DHT22;4404;49.308;12.178;2023-07-02T15:16:54;25.70;57.20
8736;DHT22;4404;49.308;12.178;2023-07-02T15:18:56;25.20;56.60
8736;DHT22;4404;49.308;12.178;2023-07-02T15:21:00;25.40;57.20
8736;DHT22;4404;49.308;12.178;2023-07-02T15:23:03;24.90;58.10
8736;DHT22;4404;49.308;12.178;2023-07-02T15:25:05;25.10;58.00
8736;DHT22;4404;49.308;12.178;2023-07-02T15:27:08;25.10;58.50
8736;DHT22;4404;49.308;12.178;2023-07-02T15:29:10;25.30;56.90
8736;DHT22;4404;49.308;12.178;2023-07-02T15:31:12;25.30;56.80
8736;DHT22;4404;49.308;12.178;2023-07-02T15:33:15;25.30;57.60
8736;DHT22;4404;49.308;12.178;2023-07-02T15:35:17;25.00;57.80
8736;DHT22;4404;49.308;12.178;2023-07-02T15:37:20;25.00;57.50
8736;DHT22;4404;49.308;12.178;2023-07-02T15:39:22;25.10;58.20
8736;DHT22;4404;49.308;12.178;2023-07-02T15:41:27;24.80;58.10
8736;DHT22;4404;49.308;12.178;2023-07-02T15:43:29;24.50;57.60
8736;DHT22;4404;49.308;12.178;2023-07-02T15:45:31;24.70;58.50
8736;DHT22;4404;49.308;12.178;2023-07-02T15:47:33;24.70;57.60
8736;DHT22;4404;49.308;12.178;2023-07-02T15:49:38;24.60;58.00
8736;DHT22;4404;49.308;12.178;2023-07-02T15:51:40;24.70;58.90
8736;DHT22;4404;49.308;12.178;2023-07-02T15:53:44;24.70;58.00
8736;DHT22;4404;49.308;12.178;2023-07-02T15:55:46;24.70;58.10
8736;DHT22;4404;49.308;12.178;2023-07-02T15:57:49;24.00;58.40
8736;DHT22;4404;49.308;12.178;2023-07-02T15:59:52;24.00;59.00
8736;DHT22;4404;49.308;12.178;2023-07-02T16:01:55;24.20;60.40
8736;DHT22;4404;49.308;12.178;2023-07-02T16:06:01;24.80;58.30
8736;DHT22;4404;49.308;12.178;2023-07-02T16:08:04;25.10;59.40
8736;DHT22;4404;49.308;12.178;2023-07-02T16:10:09;25.00;58.40
8736;DHT22;4404;49.308;12.178;2023-07-02T16:12:12;24.80;57.10
8736;DHT22;4404;49.308;12.178;2023-07-02T16:14:18;23.60;58.40
8736;DHT22;4404;49.308;12.178;2023-07-02T16:18:27;24.50;57.50
8736;DHT22;4404;49.308;12.178;2023-07-02T16:20:32;24.60;59.70
8736;DHT22;4404;49.308;12.178;2023-07-02T16:22:35;24.50;59.70
8736;DHT22;4404;49.308;12.178;2023-07-02T16:24:38;24.50;59.70
8736;DHT22;4404;49.308;12.178;2023-07-02T16:26:51;24.20;60.80
8736;DHT22;4404;49.308;12.178;2023-07-02T16:28:58;24.20;59.60
8736;DHT22;4404;49.308;12.178;2023-07-02T16:31:03;24.30;58.60
8736;DHT22;4404;49.308;12.178;2023-07-02T16:33:42;24.30;59.10
8736;DHT22;4404;49.308;12.178;2023-07-02T16:37:47;24.20;58.60
8736;DHT22;4404;49.308;12.178;2023-07-02T16:39:55;24.20;61.00
8736;DHT22;4404;49.308;12.178;2023-07-02T16:42:01;24.10;58.90
8736;DHT22;4404;49.308;12.178;2023-07-02T16:46:07;23.90;59.00
8736;DHT22;4404;49.308;12.178;2023-07-02T16:48:12;23.60;59.10
8736;DHT22;4404;49.308;12.178;2023-07-02T16:52:17;23.90;61.10
8736;DHT22;4404;49.308;12.178;2023-07-02T16:54:22;24.20;61.10
8736;DHT22;4404;49.308;12.178;2023-07-02T16:56:27;23.90;59.70
8736;DHT22;4404;49.308;12.178;2023-07-02T16:58:32;23.70;61.50
8736;DHT22;4404;49.308;12.178;2023-07-02T17:00:36;23.80;59.70
8736;DHT22;4404;49.308;12.178;2023-07-02T17:02:38;23.60;60.70
8736;DHT22;4404;49.308;12.178;2023-07-02T17:04:40;23.70;60.40
8736;DHT22;4404;49.308;12.178;2023-07-02T17:06:44;23.80;59.80
8736;DHT22;4404;49.308;12.178;2023-07-02T17:09:17;23.80;60.60
8736;DHT22;4404;49.308;12.178;2023-07-02T17:11:21;24.00;60.80
8736;DHT22;4404;49.308;12.178;2023-07-02T17:13:27;23.90;59.50
8736;DHT22;4404;49.308;12.178;2023-07-02T17:15:37;23.90;61.10
8736;DHT22;4404;49.308;12.178;2023-07-02T17:17:42;23.70;61.70
8736;DHT22;4404;49.308;12.178;2023-07-02T17:20:00;23.40;62.10
8736;DHT22;4404;49.308;12.178;2023-07-02T17:22:10;23.20;61.90
8736;DHT22;4404;49.308;12.178;2023-07-02T17:24:21;23.20;62.10
8736;DHT22;4404;49.308;12.178;2023-07-02T17:26:25;23.30;61.30
8736;DHT22;4404;49.308;12.178;2023-07-02T17:28:34;23.10;62.10
8736;DHT22;4404;49.308;12.178;2023-07-02T17:30:47;23.20;62.90
8736;DHT22;4404;49.308;12.178;2023-07-02T17:32:53;23.10;62.20
8736;DHT22;4404;49.308;12.178;2023-07-02T17:35:11;23.00;63.00
8736;DHT22;4404;49.308;12.178;2023-07-02T17:37:17;23.00;64.00
8736;DHT22;4404;49.308;12.178;2023-07-02T17:39:21;23.10;63.90
8736;DHT22;4404;49.308;12.178;2023-07-02T17:41:26;23.20;63.30
8736;DHT22;4404;49.308;12.178;2023-07-02T17:43:46;23.10;64.10
8736;DHT22;4404;49.308;12.178;2023-07-02T17:46:14;23.10;62.80
8736;DHT22;4404;49.308;12.178;2023-07-02T17:48:17;23.10;63.60
8736;DHT22;4404;49.308;12.178;2023-07-02T17:50:20;23.30;64.60
8736;DHT22;4404;49.308;12.178;2023-07-02T17:52:22;23.30;63.00
8736;DHT22;4404;49.308;12.178;2023-07-02T17:54:25;23.10;62.60
8736;DHT22;4404;49.308;12.178;2023-07-02T17:56:30;23.00;62.90
8736;DHT22;4404;49.308;12.178;2023-07-02T17:58:32;23.00;62.60
8736;DHT22;4404;49.308;12.178;2023-07-02T18:00:34;22.80;63.00
8736;DHT22;4404;49.308;12.178;2023-07-02T18:02:37;22.80;64.50
8736;DHT22;4404;49.308;12.178;2023-07-02T18:04:40;22.80;65.10
8736;DHT22;4404;49.308;12.178;2023-07-02T18:06:43;22.90;63.60
8736;DHT22;4404;49.308;12.178;2023-07-02T18:08:46;22.80;63.70
8736;DHT22;4404;49.308;12.178;2023-07-02T18:10:49;22.70;63.40
8736;DHT22;4404;49.308;12.178;2023-07-02T18:12:51;22.60;62.80
8736;DHT22;4404;49.308;12.178;2023-07-02T18:14:55;22.60;64.20
8736;DHT22;4404;49.308;12.178;2023-07-02T18:17:00;22.60;63.30
8736;DHT22;4404;49.308;12.178;2023-07-02T18:19:04;22.60;64.00
8736;DHT22;4404;49.308;12.178;2023-07-02T18:21:06;22.70;65.70
8736;DHT22;4404;49.308;12.178;2023-07-02T18:23:09;22.70;64.30
8736;DHT22;4404;49.308;12.178;2023-07-02T18:25:12;22.60;64.30
8736;DHT22;4404;49.308;12.178;2023-07-02T18:27:14;22.50;64.20
8736;DHT22;4404;49.308;12.178;2023-07-02T18:29:16;22.50;65.50
8736;DHT22;4404;49.308;12.178;2023-07-02T18:31:19;22.40;64.00
8736;DHT22;4404;49.308;12.178;2023-07-02T18:33:21;22.30;64.00
8736;DHT22;4404;49.308;12.178;2023-07-02T18:35:32;22.30;64.30
8736;DHT22;4404;49.308;12.178;2023-07-02T18:37:36;22.10;64.80
8736;DHT22;4404;49.308;12.178;2023-07-02T18:39:39;22.10;66.10
8736;DHT22;4404;49.308;12.178;2023-07-02T18:41:42;22.00;65.00
8736;DHT22;4404;49.308;12.178;2023-07-02T18:43:46;21.90;65.90
8736;DHT22;4404;49.308;12.178;2023-07-02T18:45:50;21.90;66.30
8736;DHT22;4404;49.308;12.178;2023-07-02T18:47:53;21.70;65.80
8736;DHT22;4404;49.308;12.178;2023-07-02T18:49:55;21.70;66.40
8736;DHT22;4404;49.308;12.178;2023-07-02T18:51:58;21.60;67.10
8736;DHT22;4404;49.308;12.178;2023-07-02T18:54:01;21.70;68.10
8736;DHT22;4404;49.308;12.178;2023-07-02T18:56:04;21.70;66.70
8736;DHT22;4404;49.308;12.178;2023-07-02T18:58:07;21.60;66.60
8736;DHT22;4404;49.308;12.178;2023-07-02T19:00:10;21.60;66.80
8736;DHT22;4404;49.308;12.178;2023-07-02T19:02:13;21.60;66.90
8736;DHT22;4404;49.308;12.178;2023-07-02T19:04:15;21.50;67.80
8736;DHT22;4404;49.308;12.178;2023-07-02T19:06:17;21.60;70.10
8736;DHT22;4404;49.308;12.178;2023-07-02T19:08:21;21.60;70.00
8736;DHT22;4404;49.308;12.178;2023-07-02T19:10:23;21.60;69.10
